Flight Track Log - Related Links

Times and Time Zones

All times are in EDT time to prevent confusion due to time zone crossing. See the EJA831 flight status page for this flight to view local times or setup timezone preferences in your user account.

Time Position Orientation Groundspeed Altitude Reporting Facility
EDT Latitude Longitude Course Direction KTS MPH feet Rate Location/Type
Mon 10:48:58 AM 39.2906 -106.9397 306° West 240 276 11,100  Level Denver Center
Mon 10:50:00 AM 39.3100 -107.0336 285° West 263 303 13,000 1,935 Climbing Denver Center
Mon 10:51:02 AM 39.3633 -107.1153 310° West 289 333 15,100 2,226 Climbing Denver Center
Mon 10:52:04 AM 39.3158 -107.1994 234° Southwest 315 362 17,600 1,968 Climbing Denver Center
Mon 10:53:00 AM 38.9919 -107.1042 173° South  Level FlightAware Approximate
Mon 10:53:07 AM 39.2297 -107.1783 169° South 341 392 19,200  Level Denver Center
Mon 10:54:09 AM 39.1192 -107.1647 175° South 348 400 21,400 1,805 Climbing Denver Center
Mon 10:55:10 AM 39.0411 -107.1494 171° South 353 406 22,900 1,645 Climbing Denver Center
Mon 10:56:13 AM 38.9131 -107.1264 172° South 363 418 24,800 1,632 Climbing Denver Center
Mon 10:57:15 AM 38.8139 -107.1081 172° South 370 426 26,300 1,403 Climbing Denver Center
Mon 10:58:17 AM 38.7128 -107.0881 171° South 368 423 27,700 1,258 Climbing Denver Center
Mon 10:59:19 AM 38.6083 -107.0692 172° South 378 435 28,900 1,161 Climbing Denver Center
Mon 11:00:21 AM 38.4992 -107.0486 172° South 386 444 30,100 1,210 Climbing Denver Center
Mon 11:01:23 AM 38.3869 -106.9669 150° Southeast 404 465 31,400 1,113 Climbing Denver Center
Mon 11:02:25 AM 38.3008 -106.8703 139° Southeast 414 476 32,400 878 Climbing Denver Center
Mon 11:03:26 AM 38.2339 -106.7764 132° Southeast 419 482 33,200 1,065 Climbing Denver Center
Mon 11:04:29 AM 38.1592 -106.6122 120° Southeast 422 486 34,600 1,056 Climbing Denver Center
Mon 11:05:31 AM 38.1069 -106.4997 121° Southeast 427 491 35,400 968 Climbing Denver Center
Mon 11:06:33 AM 38.0378 -106.3481 120° Southeast 418 481 36,600 774 Climbing Denver Center
Mon 11:07:35 AM 37.9800 -106.2244 121° Southeast 425 489 37,000 194 Climbing Denver Center
Mon 11:08:37 AM 37.9092 -106.0744 121° Southeast 442 509 37,000  Level Denver Center
Mon 11:09:39 AM 37.8489 -105.9417 120° Southeast 450 518 37,000 242 Level Denver Center
Mon 11:10:41 AM 37.7842 -105.8083 122° Southeast 460 529 37,500 1,065 Climbing Denver Center
Mon 11:11:43 AM 37.7147 -105.6625 121° Southeast 430 495 39,200 1,355 Climbing Denver Center
Mon 11:12:45 AM 37.6575 -105.5419 121° Southeast 420 483 40,300 871 Climbing Denver Center
Mon 11:13:47 AM 37.5942 -105.4042 120° Southeast 409 471 41,000 339 Climbing Denver Center
Mon 11:14:49 AM 37.5353 -105.2833 122° Southeast 418 481 41,000  Level Denver Center
Mon 11:15:51 AM 37.4636 -105.1339 121° Southeast 438 504 41,000  Level Denver Center
Mon 11:16:53 AM 37.4014 -105.0056 121° Southeast 446 513 41,000  Level Denver Center
Mon 11:17:55 AM 37.3281 -104.8558 122° Southeast 451 519 41,000  Level Denver Center
Mon 11:18:57 AM 37.2650 -104.7261 121° Southeast 454 522 41,000  Level Denver Center
Mon 11:20:00 AM 37.1908 -104.5747 122° Southeast 457 526 41,000  Level Denver Center
Mon 11:21:02 AM 37.1269 -104.4458 122° Southeast 458 527 41,000  Level Denver Center
Mon 11:22:04 AM 37.0533 -104.2944 121° Southeast 457 526 41,000  Level Denver Center
Mon 11:23:06 AM 36.9886 -104.1647 122° Southeast 459 528 41,000  Level Denver Center
Mon 11:24:08 AM 36.9136 -104.0144 122° Southeast 459 528 41,000  Level Denver Center
Mon 11:25:10 AM 36.8500 -103.8853 122° Southeast 458 527 41,000  Level Denver Center
Mon 11:26:12 AM 36.7744 -103.7356 122° Southeast 456 525 41,000  Level Denver Center
Mon 11:27:26 AM 36.7097 -103.6075 122° Southeast 457 526 41,000  Level Denver Center
Mon 11:28:36 AM 36.6119 -103.4133 122° Southeast 455 524 41,000  Level Albuquerque Center
Mon 11:29:38 AM 36.5439 -103.2800 122° Southeast 452 520 41,000  Level Albuquerque Center
Mon 11:30:40 AM 36.4753 -103.1456 122° Southeast 454 522 41,000  Level Albuquerque Center
Mon 11:31:42 AM 36.4067 -103.0106 122° Southeast 456 525 41,000  Level Albuquerque Center
Mon 11:32:44 AM 36.3383 -102.8767 122° Southeast 453 521 41,000  Level Albuquerque Center
Mon 11:33:46 AM 36.2700 -102.7461 123° Southeast 452 520 41,000  Level Albuquerque Center
Mon 11:34:48 AM 36.2022 -102.6139 122° Southeast 453 521 41,000  Level Albuquerque Center
Mon 11:35:50 AM 36.1206 -102.4567 123° Southeast 454 522 41,000  Level Albuquerque Center
Mon 11:36:52 AM 36.0511 -102.3247 123° Southeast 455 524 41,000  Level Albuquerque Center
Mon 11:37:54 AM 35.9822 -102.1942 123° Southeast 455 524 41,000  Level Albuquerque Center
Mon 11:38:56 AM 35.9133 -102.0631 123° Southeast 455 524 41,000  Level Albuquerque Center
Mon 11:39:58 AM 35.8442 -101.9306 123° Southeast 457 526 41,000  Level Albuquerque Center
Mon 11:41:00 AM 35.7747 -101.7994 123° Southeast 456 525 41,000  Level Albuquerque Center
Mon 11:42:02 AM 35.7047 -101.6689 123° Southeast 456 525 41,000  Level Albuquerque Center
Mon 11:43:04 AM 35.6214 -101.5114 123° Southeast 456 525 41,000  Level Albuquerque Center
Mon 11:44:06 AM 35.5503 -101.3794 123° Southeast 457 526 41,000  Level Albuquerque Center
Mon 11:45:08 AM 35.4800 -101.2458 123° Southeast 461 531 41,000  Level Albuquerque Center
Mon 11:46:10 AM 35.4197 -101.1081 118° Southeast 459 528 41,000  Level Albuquerque Center
Mon 11:47:12 AM 35.3594 -100.9717 118° Southeast 455 524 41,000  Level Albuquerque Center
Mon 11:48:14 AM 35.3000 -100.8344 118° Southeast 455 524 41,000  Level Albuquerque Center
Mon 11:49:16 AM 35.2406 -100.7003 118° Southeast 452 520 41,000  Level Albuquerque Center
Mon 11:50:18 AM 35.1803 -100.5664 119° Southeast 449 517 41,000  Level Albuquerque Center
Mon 11:51:19 AM 35.1081 -100.4036 118° Southeast 453 521 41,000  Level Albuquerque Center
Mon 11:52:21 AM 35.0536 -100.2808 118° Southeast 454 522 41,000  Level Albuquerque Center
Mon 11:53:23 AM 34.9922 -100.1464 119° Southeast 454 522 41,000  Level Albuquerque Center
Mon 11:54:25 AM 34.9203 -99.9836 118° Southeast 456 525 41,000  Level Albuquerque Center
Mon 11:55:27 AM 34.8592 -99.8492 119° Southeast 454 522 41,000  Level Albuquerque Center
Mon 11:56:02 AM 34.8189 -99.7631 120° Southeast 459 528 41,000  Level Fort Worth Center
Mon 11:57:02 AM 34.7586 -99.6325 119° Southeast 459 528 41,000  Level Fort Worth Center
Mon 11:58:02 AM 34.6964 -99.4997 120° Southeast 454 522 41,000  Level Fort Worth Center
Mon 11:59:02 AM 34.6358 -99.3644 119° Southeast 454 522 41,000  Level Fort Worth Center
Mon 12:00:02 PM 34.5753 -99.2319 119° Southeast 454 522 41,000  Level Fort Worth Center
Mon 12:01:02 PM 34.5144 -99.0994 119° Southeast 447 514 41,000  Level Fort Worth Center
Mon 12:02:02 PM 34.4517 -98.9700 120° Southeast 447 514 41,000  Level Fort Worth Center
Mon 12:03:02 PM 34.3886 -98.8353 120° Southeast 452 520 41,000  Level Fort Worth Center
Mon 12:04:02 PM 34.3253 -98.7011 120° Southeast 452 520 41,000  Level Fort Worth Center
Mon 12:05:02 PM 34.2639 -98.5694 119° Southeast 452 520 41,000  Level Fort Worth Center
Mon 12:06:02 PM 34.2003 -98.4381 120° Southeast 452 520 41,000  Level Fort Worth Center
Mon 12:07:02 PM 34.1367 -98.3042 120° Southeast 452 520 41,000  Level Fort Worth Center
Mon 12:08:02 PM 34.0772 -98.1658 117° Southeast 452 520 41,000  Level Fort Worth Center
Mon 12:09:02 PM 34.0172 -98.0325 118° Southeast 452 520 41,000  Level Fort Worth Center
Mon 12:10:02 PM 33.9533 -97.8992 120° Southeast 452 520 41,000  Level Fort Worth Center
Mon 12:11:02 PM 33.8889 -97.7714 121° Southeast 452 520 41,000  Level Fort Worth Center
Mon 12:12:02 PM 33.8289 -97.6386 119° Southeast 452 520 41,000  Level Fort Worth Center
Mon 12:13:02 PM 33.7642 -97.5058 120° Southeast 452 520 41,000  Level Fort Worth Center
Mon 12:14:02 PM 33.7017 -97.3786 121° Southeast 452 520 41,000  Level Fort Worth Center
Mon 12:15:02 PM 33.6389 -97.2514 121° Southeast 452 520 41,000  Level Fort Worth Center
Mon 12:16:02 PM 33.5761 -97.1192 120° Southeast 452 520 41,000  Level Fort Worth Center
Mon 12:17:02 PM 33.5236 -97.0147 121° Southeast 452 520 41,000  Level Fort Worth Center
Mon 12:18:02 PM 33.4564 -96.8731 120° Southeast 447 514 41,000  Level Fort Worth Center
Mon 12:19:02 PM 33.3911 -96.7467 122° Southeast 447 514 41,000  Level Fort Worth Center
Mon 12:20:02 PM 33.3278 -96.6178 120° Southeast 447 514 41,000  Level Fort Worth Center
Mon 12:21:02 PM 33.2642 -96.4892 121° Southeast 447 514 41,000  Level Fort Worth Center
Mon 12:22:02 PM 33.1986 -96.3633 122° Southeast 447 514 41,000  Level Fort Worth Center
Mon 12:23:02 PM 33.1347 -96.2350 121° Southeast 447 514 41,000  Level Fort Worth Center
Mon 12:24:02 PM 33.0731 -96.1119 121° Southeast 447 514 41,000  Level Fort Worth Center
Mon 12:25:02 PM 33.0069 -95.9842 122° Southeast 452 520 41,000  Level Fort Worth Center
Mon 12:26:02 PM 32.9428 -95.8564 121° Southeast 446 513 41,000  Level Fort Worth Center
Mon 12:27:02 PM 32.8806 -95.7339 121° Southeast 446 513 41,000  Level Fort Worth Center
Mon 12:28:02 PM 32.8142 -95.6089 122° Southeast 446 513 41,000  Level Fort Worth Center
Mon 12:29:02 PM 32.7539 -95.4842 120° Southeast 446 513 41,000  Level Fort Worth Center
Mon 12:30:02 PM 32.6914 -95.3597 121° Southeast 446 513 41,000  Level Fort Worth Center
Mon 12:31:02 PM 32.6225 -95.2353 123° Southeast 446 513 41,000  Level Fort Worth Center
Mon 12:32:02 PM 32.5578 -95.1089 121° Southeast 452 520 41,000  Level Fort Worth Center
Mon 12:33:02 PM 32.4928 -94.9850 122° Southeast 447 514 41,000  Level Fort Worth Center
Mon 12:34:02 PM 32.4275 -94.8586 121° Southeast 447 514 41,000  Level Fort Worth Center
Mon 12:35:02 PM 32.3644 -94.7350 121° Southeast 447 514 41,000  Level Fort Worth Center
Mon 12:36:02 PM 32.2992 -94.6117 122° Southeast 447 514 41,000  Level Fort Worth Center
Mon 12:37:02 PM 32.2358 -94.4883 121° Southeast 447 514 41,000  Level Fort Worth Center
Mon 12:38:02 PM 32.1678 -94.3531 121° Southeast 447 514 41,000  Level Fort Worth Center
Mon 12:39:02 PM 32.1042 -94.2300 121° Southeast 442 509 41,000  Level Fort Worth Center
Mon 12:40:02 PM 32.0386 -94.1075 122° Southeast 442 509 41,000  Level Fort Worth Center
Mon 12:41:02 PM 31.9725 -93.9825 122° Southeast 442 509 41,000  Level Fort Worth Center
Mon 12:42:07 PM 31.9078 -93.8664 123° Southeast 437 503 41,000  Level Houston Center
Mon 12:43:09 PM 31.8417 -93.7428 122° Southeast 441 507 41,000  Level Houston Center
Mon 12:44:11 PM 31.7764 -93.6208 122° Southeast 441 507 41,000  Level Houston Center
Mon 12:45:13 PM 31.6986 -93.4756 122° Southeast 437 503 41,000  Level Houston Center
Mon 12:46:15 PM 31.6381 -93.3522 120° Southeast 434 499 41,000  Level Houston Center
Mon 12:47:17 PM 31.6092 -93.2336 106° East 435 501 41,000  Level Houston Center
Mon 12:48:19 PM 31.5681 -93.0714 107° East 432 497 41,000 -581 Level Houston Center
Mon 12:49:21 PM 31.5339 -92.9339 106° East 436 502 39,800 -1,306 Descending Houston Center
Mon 12:50:23 PM 31.5003 -92.7989 106° East 433 498 38,300 -1,452 Descending Houston Center
Mon 12:51:25 PM 31.4569 -92.6689 111° Southeast 426 490 36,800 -1,452 Descending Houston Center
Mon 12:52:27 PM 31.3828 -92.5600 129° Southeast 428 493 35,300 -871 Descending Houston Center
Mon 12:53:29 PM 31.3083 -92.4517 129° Southeast 428 493 35,000 -145 Descending Houston Center
Mon 12:54:31 PM 31.2358 -92.3369 126° Southeast 437 503 35,000  Level Houston Center
Mon 12:55:33 PM 31.1581 -92.1950 123° Southeast 434 499 35,000  Level Houston Center
Mon 12:56:35 PM 31.0925 -92.0747 122° Southeast 437 503 35,000  Level Houston Center
Mon 12:57:37 PM 31.0281 -91.9553 122° Southeast 436 502 35,000  Level Houston Center
Mon 12:58:39 PM 30.9631 -91.8367 123° Southeast 435 501 35,000 -871 Level Houston Center
Mon 12:59:41 PM 30.8878 -91.7117 125° Southeast 432 497 33,200 -2,000 Descending Houston Center
Mon 01:00:42 PM 30.7975 -91.6231 140° Southeast 421 484 30,900 -2,341 Descending Houston Center
Mon 01:01:44 PM 30.7142 -91.5378 139° Southeast 406 467 28,400 -2,419 Descending Houston Center
Mon 01:02:46 PM 30.6281 -91.4533 140° Southeast 403 464 25,900 -2,419 Descending Houston Center
Mon 01:03:48 PM 30.5389 -91.3678 140° Southeast 412 474 23,400 -2,758 Descending Houston Center
Mon 01:04:50 PM 30.4494 -91.2506 131° Southeast 409 471 20,200 -2,909 Descending Houston Center
Mon 01:05:27 PM 30.4128 -91.1883 124° Southeast 408 470 18,600 -2,510 Descending Houston Center
Mon 01:06:28 PM 30.3414 -91.0822 128° Southeast 387 445 16,100 -2,479 Descending Houston Center
Mon 01:07:28 PM 30.2989 -90.9753 115° Southeast 365 420 13,600 -2,380 Descending Houston Center
Mon 01:08:29 PM 30.2733 -90.8678 105° East 344 396 11,300 -1,426 Descending Houston Center
Mon 01:09:30 PM 30.2456 -90.7653 107° East 336 387 10,700 -1,026 Descending Houston Center
Mon 01:11:01 PM 30.2069 -90.6222 107° East 308 354 8,700 -1,289 Descending Houston Center
Mon 01:11:31 PM 30.1964 -90.5769 105° East 293 337 8,100 -1,452 Descending Houston Center
Mon 01:12:03 PM 30.1839 -90.5314 108° East 298 343 7,200 -1,596 Descending Houston Center
Mon 01:13:05 PM 30.1611 -90.4439 107° East 293 337 5,600 -1,548 Descending Houston Center
Mon 01:14:07 PM 30.1392 -90.3606 107° East 284 327 4,000 -1,452 Descending Houston Center
Mon 01:15:09 PM 30.1186 -90.2808 107° East 273 314 2,600 -1,024 Descending Houston Center
Mon 01:16:10 PM 30.0942 -90.2317 120° Southeast 224 258 1,900 -829 Descending Houston Center
Mon 01:17:12 PM 30.0478 -90.2317 180° South 165 190 900 -774 Descending Houston Center
Mon 01:18:14 PM 30.0228 -90.2403 197° South 143 165 300 -581 Descending Houston Center
Mon 01:20:00 PM 29.9833 -90.2500 101° East  Level FlightAware Approximate

Login

Don't have an account? Register now (free) for customized features, flight alerts, and more!